sensor_id;sensor_type;location;lat;lon;timestamp;P1;durP1;ratioP1;P2;durP2;ratioP2
6356;SDS011;3211;53.452;-2.264;2023-08-12T00:00:18;18.33;;;4.80;;
6356;SDS011;3211;53.452;-2.264;2023-08-12T00:03:00;19.30;;;3.50;;
6356;SDS011;3211;53.452;-2.264;2023-08-12T00:05:42;8.30;;;3.97;;
6356;SDS011;3211;53.452;-2.264;2023-08-12T00:08:24;12.87;;;3.10;;
6356;SDS011;3211;53.452;-2.264;2023-08-12T00:11:07;10.07;;;3.33;;
6356;SDS011;3211;53.452;-2.264;2023-08-12T00:13:49;16.67;;;4.33;;
6356;SDS011;3211;53.452;-2.264;2023-08-12T00:16:32;22.17;;;4.20;;
6356;SDS011;3211;53.452;-2.264;2023-08-12T00:19:14;12.50;;;3.40;;
6356;SDS011;3211;53.452;-2.264;2023-08-12T00:21:55;14.50;;;4.17;;
6356;SDS011;3211;53.452;-2.264;2023-08-12T00:24:37;14.23;;;3.60;;
6356;SDS011;3211;53.452;-2.264;2023-08-12T00:27:21;13.97;;;4.37;;
6356;SDS011;3211;53.452;-2.264;2023-08-12T00:30:04;21.27;;;3.60;;
6356;SDS011;3211;53.452;-2.264;2023-08-12T00:32:46;11.60;;;3.93;;
6356;SDS011;3211;53.452;-2.264;2023-08-12T00:35:28;12.23;;;4.50;;
6356;SDS011;3211;53.452;-2.264;2023-08-12T00:38:10;15.03;;;4.17;;
6356;SDS011;3211;53.452;-2.264;2023-08-12T00:40:52;13.03;;;4.30;;
6356;SDS011;3211;53.452;-2.264;2023-08-12T00:43:36;14.30;;;3.47;;
6356;SDS011;3211;53.452;-2.264;2023-08-12T00:46:18;13.40;;;3.10;;
6356;SDS011;3211;53.452;-2.264;2023-08-12T00:49:00;12.30;;;4.07;;
6356;SDS011;3211;53.452;-2.264;2023-08-12T00:51:42;16.30;;;4.10;;
6356;SDS011;3211;53.452;-2.264;2023-08-12T00:54:25;10.70;;;3.53;;
6356;SDS011;3211;53.452;-2.264;2023-08-12T00:57:08;20.47;;;4.43;;
6356;SDS011;3211;53.452;-2.264;2023-08-12T00:59:51;13.27;;;3.90;;
6356;SDS011;3211;53.452;-2.264;2023-08-12T01:02:36;13.40;;;3.90;;
6356;SDS011;3211;53.452;-2.264;2023-08-12T01:05:18;13.27;;;4.43;;
6356;SDS011;3211;53.452;-2.264;2023-08-12T01:08:00;12.13;;;3.77;;
6356;SDS011;3211;53.452;-2.264;2023-08-12T01:10:44;14.13;;;3.57;;
6356;SDS011;3211;53.452;-2.264;2023-08-12T01:13:41;12.63;;;4.83;;
6356;SDS011;3211;53.452;-2.264;2023-08-12T01:16:33;16.30;;;3.93;;
6356;SDS011;3211;53.452;-2.264;2023-08-12T01:19:21;6.90;;;3.00;;
6356;SDS011;3211;53.452;-2.264;2023-08-12T01:22:15;25.30;;;4.10;;
6356;SDS011;3211;53.452;-2.264;2023-08-12T01:25:03;12.90;;;4.47;;
6356;SDS011;3211;53.452;-2.264;2023-08-12T01:27:46;10.87;;;3.67;;
6356;SDS011;3211;53.452;-2.264;2023-08-12T01:30:28;17.00;;;4.70;;
6356;SDS011;3211;53.452;-2.264;2023-08-12T01:33:13;10.00;;;3.90;;
6356;SDS011;3211;53.452;-2.264;2023-08-12T01:36:04;12.03;;;3.73;;
6356;SDS011;3211;53.452;-2.264;2023-08-12T01:38:51;14.90;;;3.80;;
6356;SDS011;3211;53.452;-2.264;2023-08-12T01:41:34;13.13;;;4.30;;
6356;SDS011;3211;53.452;-2.264;2023-08-12T01:44:18;13.40;;;3.50;;
6356;SDS011;3211;53.452;-2.264;2023-08-12T01:47:00;15.80;;;3.70;;
6356;SDS011;3211;53.452;-2.264;2023-08-12T01:49:43;11.03;;;3.57;;
6356;SDS011;3211;53.452;-2.264;2023-08-12T01:52:24;16.57;;;3.93;;
6356;SDS011;3211;53.452;-2.264;2023-08-12T01:55:07;11.07;;;3.40;;
6356;SDS011;3211;53.452;-2.264;2023-08-12T01:57:51;9.80;;;3.63;;
6356;SDS011;3211;53.452;-2.264;2023-08-12T02:00:33;11.77;;;3.70;;
6356;SDS011;3211;53.452;-2.264;2023-08-12T02:03:15;19.10;;;4.33;;
6356;SDS011;3211;53.452;-2.264;2023-08-12T02:05:57;11.70;;;3.30;;
6356;SDS011;3211;53.452;-2.264;2023-08-12T02:08:39;12.60;;;3.47;;
6356;SDS011;3211;53.452;-2.264;2023-08-12T02:11:21;19.77;;;4.27;;
6356;SDS011;3211;53.452;-2.264;2023-08-12T02:14:04;14.83;;;3.53;;
6356;SDS011;3211;53.452;-2.264;2023-08-12T02:16:46;14.70;;;3.37;;
6356;SDS011;3211;53.452;-2.264;2023-08-12T02:19:28;13.23;;;3.60;;
6356;SDS011;3211;53.452;-2.264;2023-08-12T02:22:10;19.07;;;4.03;;
6356;SDS011;3211;53.452;-2.264;2023-08-12T02:24:52;18.33;;;3.83;;
6356;SDS011;3211;53.452;-2.264;2023-08-12T02:27:34;16.73;;;3.97;;
6356;SDS011;3211;53.452;-2.264;2023-08-12T02:30:17;15.90;;;3.57;;
6356;SDS011;3211;53.452;-2.264;2023-08-12T02:32:59;13.30;;;3.90;;
6356;SDS011;3211;53.452;-2.264;2023-08-12T02:35:42;16.37;;;4.27;;
6356;SDS011;3211;53.452;-2.264;2023-08-12T02:38:24;12.40;;;3.47;;
6356;SDS011;3211;53.452;-2.264;2023-08-12T02:41:05;18.57;;;3.53;;
6356;SDS011;3211;53.452;-2.264;2023-08-12T02:43:47;12.90;;;3.33;;
6356;SDS011;3211;53.452;-2.264;2023-08-12T02:46:31;11.90;;;3.47;;
6356;SDS011;3211;53.452;-2.264;2023-08-12T02:49:13;11.63;;;3.60;;
6356;SDS011;3211;53.452;-2.264;2023-08-12T02:51:55;12.53;;;3.87;;
6356;SDS011;3211;53.452;-2.264;2023-08-12T02:54:37;11.03;;;3.50;;
6356;SDS011;3211;53.452;-2.264;2023-08-12T02:57:19;10.70;;;3.50;;
6356;SDS011;3211;53.452;-2.264;2023-08-12T03:00:01;8.10;;;2.77;;
6356;SDS011;3211;53.452;-2.264;2023-08-12T03:02:46;19.23;;;4.10;;
6356;SDS011;3211;53.452;-2.264;2023-08-12T03:05:29;16.50;;;3.40;;
6356;SDS011;3211;53.452;-2.264;2023-08-12T03:08:13;10.97;;;3.73;;
6356;SDS011;3211;53.452;-2.264;2023-08-12T03:10:58;21.53;;;4.37;;
6356;SDS011;3211;53.452;-2.264;2023-08-12T03:13:41;10.53;;;3.30;;
6356;SDS011;3211;53.452;-2.264;2023-08-12T03:16:23;11.33;;;3.97;;
6356;SDS011;3211;53.452;-2.264;2023-08-12T03:19:06;13.70;;;4.60;;
6356;SDS011;3211;53.452;-2.264;2023-08-12T03:21:48;14.57;;;3.70;;
6356;SDS011;3211;53.452;-2.264;2023-08-12T03:24:30;14.37;;;4.73;;
6356;SDS011;3211;53.452;-2.264;2023-08-12T03:27:12;21.90;;;3.83;;
6356;SDS011;3211;53.452;-2.264;2023-08-12T03:29:54;12.10;;;3.93;;
6356;SDS011;3211;53.452;-2.264;2023-08-12T03:32:37;13.30;;;4.20;;
6356;SDS011;3211;53.452;-2.264;2023-08-12T03:35:20;11.00;;;3.50;;
6356;SDS011;3211;53.452;-2.264;2023-08-12T03:38:02;15.27;;;4.67;;
6356;SDS011;3211;53.452;-2.264;2023-08-12T03:40:44;10.43;;;3.90;;
6356;SDS011;3211;53.452;-2.264;2023-08-12T03:43:26;9.87;;;4.33;;
6356;SDS011;3211;53.452;-2.264;2023-08-12T03:46:08;13.33;;;5.60;;
6356;SDS011;3211;53.452;-2.264;2023-08-12T03:48:50;11.67;;;4.50;;
6356;SDS011;3211;53.452;-2.264;2023-08-12T03:51:33;11.33;;;4.10;;
6356;SDS011;3211;53.452;-2.264;2023-08-12T03:54:15;11.47;;;3.90;;
6356;SDS011;3211;53.452;-2.264;2023-08-12T03:56:57;12.93;;;4.13;;
6356;SDS011;3211;53.452;-2.264;2023-08-12T03:59:39;14.87;;;5.37;;
6356;SDS011;3211;53.452;-2.264;2023-08-12T04:02:21;17.73;;;4.67;;
6356;SDS011;3211;53.452;-2.264;2023-08-12T04:05:03;18.53;;;4.73;;
6356;SDS011;3211;53.452;-2.264;2023-08-12T04:07:47;10.00;;;3.90;;
6356;SDS011;3211;53.452;-2.264;2023-08-12T04:10:29;13.90;;;5.17;;
6356;SDS011;3211;53.452;-2.264;2023-08-12T04:13:11;13.20;;;4.33;;
6356;SDS011;3211;53.452;-2.264;2023-08-12T04:15:54;15.90;;;4.77;;
6356;SDS011;3211;53.452;-2.264;2023-08-12T04:18:39;15.43;;;5.03;;
6356;SDS011;3211;53.452;-2.264;2023-08-12T04:21:21;14.10;;;4.40;;
6356;SDS011;3211;53.452;-2.264;2023-08-12T04:24:05;14.73;;;5.27;;
6356;SDS011;3211;53.452;-2.264;2023-08-12T04:26:48;14.27;;;4.87;;
6356;SDS011;3211;53.452;-2.264;2023-08-12T04:29:30;15.90;;;4.23;;
6356;SDS011;3211;53.452;-2.264;2023-08-12T04:32:12;12.50;;;4.07;;
6356;SDS011;3211;53.452;-2.264;2023-08-12T04:34:54;10.97;;;3.83;;
6356;SDS011;3211;53.452;-2.264;2023-08-12T04:37:36;12.67;;;4.27;;
6356;SDS011;3211;53.452;-2.264;2023-08-12T04:40:19;11.40;;;3.87;;
6356;SDS011;3211;53.452;-2.264;2023-08-12T04:43:02;13.10;;;4.40;;
6356;SDS011;3211;53.452;-2.264;2023-08-12T04:45:45;17.50;;;3.83;;
6356;SDS011;3211;53.452;-2.264;2023-08-12T04:48:27;13.63;;;4.10;;
6356;SDS011;3211;53.452;-2.264;2023-08-12T04:51:09;14.83;;;4.60;;
6356;SDS011;3211;53.452;-2.264;2023-08-12T04:53:51;12.07;;;4.10;;
6356;SDS011;3211;53.452;-2.264;2023-08-12T04:56:34;11.17;;;3.50;;
6356;SDS011;3211;53.452;-2.264;2023-08-12T04:59:16;10.87;;;4.10;;
6356;SDS011;3211;53.452;-2.264;2023-08-12T05:01:58;10.07;;;3.50;;
6356;SDS011;3211;53.452;-2.264;2023-08-12T05:04:40;11.07;;;3.77;;
6356;SDS011;3211;53.452;-2.264;2023-08-12T05:07:22;13.73;;;4.00;;
6356;SDS011;3211;53.452;-2.264;2023-08-12T05:10:05;18.33;;;3.93;;
6356;SDS011;3211;53.452;-2.264;2023-08-12T05:12:48;8.07;;;3.00;;
6356;SDS011;3211;53.452;-2.264;2023-08-12T05:15:32;9.17;;;3.70;;
6356;SDS011;3211;53.452;-2.264;2023-08-12T05:18:16;16.47;;;3.93;;
6356;SDS011;3211;53.452;-2.264;2023-08-12T05:20:58;10.63;;;3.17;;
6356;SDS011;3211;53.452;-2.264;2023-08-12T05:23:40;14.13;;;3.77;;
6356;SDS011;3211;53.452;-2.264;2023-08-12T05:26:22;12.87;;;3.73;;
6356;SDS011;3211;53.452;-2.264;2023-08-12T05:29:06;14.60;;;4.23;;
6356;SDS011;3211;53.452;-2.264;2023-08-12T05:31:48;12.60;;;3.97;;
6356;SDS011;3211;53.452;-2.264;2023-08-12T05:34:30;17.27;;;3.60;;
6356;SDS011;3211;53.452;-2.264;2023-08-12T05:37:12;11.27;;;3.63;;
6356;SDS011;3211;53.452;-2.264;2023-08-12T05:39:54;11.07;;;3.43;;
6356;SDS011;3211;53.452;-2.264;2023-08-12T05:42:36;12.73;;;3.47;;
6356;SDS011;3211;53.452;-2.264;2023-08-12T05:45:20;14.07;;;4.10;;
6356;SDS011;3211;53.452;-2.264;2023-08-12T05:48:02;13.47;;;3.73;;
6356;SDS011;3211;53.452;-2.264;2023-08-12T05:50:44;13.07;;;3.80;;
6356;SDS011;3211;53.452;-2.264;2023-08-12T05:53:26;15.50;;;4.53;;
6356;SDS011;3211;53.452;-2.264;2023-08-12T05:56:08;11.87;;;3.80;;
6356;SDS011;3211;53.452;-2.264;2023-08-12T05:58:50;8.57;;;3.07;;
6356;SDS011;3211;53.452;-2.264;2023-08-12T06:01:33;11.17;;;3.50;;
6356;SDS011;3211;53.452;-2.264;2023-08-12T06:04:15;11.70;;;3.90;;
6356;SDS011;3211;53.452;-2.264;2023-08-12T06:06:57;8.40;;;3.77;;
6356;SDS011;3211;53.452;-2.264;2023-08-12T06:09:39;13.17;;;3.87;;
6356;SDS011;3211;53.452;-2.264;2023-08-12T06:12:21;10.40;;;3.17;;
6356;SDS011;3211;53.452;-2.264;2023-08-12T06:15:04;13.47;;;3.93;;
6356;SDS011;3211;53.452;-2.264;2023-08-12T06:17:51;14.83;;;3.93;;
6356;SDS011;3211;53.452;-2.264;2023-08-12T06:20:33;12.83;;;3.70;;
6356;SDS011;3211;53.452;-2.264;2023-08-12T06:23:15;14.00;;;3.20;;
6356;SDS011;3211;53.452;-2.264;2023-08-12T06:25:57;9.00;;;2.80;;
6356;SDS011;3211;53.452;-2.264;2023-08-12T06:28:39;13.07;;;3.43;;
6356;SDS011;3211;53.452;-2.264;2023-08-12T06:31:21;13.00;;;3.60;;
6356;SDS011;3211;53.452;-2.264;2023-08-12T06:34:05;14.10;;;4.30;;
6356;SDS011;3211;53.452;-2.264;2023-08-12T06:36:48;11.00;;;2.93;;
6356;SDS011;3211;53.452;-2.264;2023-08-12T06:39:30;10.47;;;3.70;;
6356;SDS011;3211;53.452;-2.264;2023-08-12T06:42:12;11.73;;;3.30;;
6356;SDS011;3211;53.452;-2.264;2023-08-12T06:44:54;13.23;;;3.20;;
6356;SDS011;3211;53.452;-2.264;2023-08-12T06:47:37;10.13;;;3.20;;
6356;SDS011;3211;53.452;-2.264;2023-08-12T06:50:20;12.20;;;3.30;;
6356;SDS011;3211;53.452;-2.264;2023-08-12T06:53:02;9.60;;;3.57;;
6356;SDS011;3211;53.452;-2.264;2023-08-12T06:55:45;12.20;;;3.50;;
6356;SDS011;3211;53.452;-2.264;2023-08-12T06:58:27;12.90;;;3.70;;
6356;SDS011;3211;53.452;-2.264;2023-08-12T07:01:09;10.43;;;3.50;;
6356;SDS011;3211;53.452;-2.264;2023-08-12T07:03:51;12.97;;;4.03;;
6356;SDS011;3211;53.452;-2.264;2023-08-12T07:06:34;7.00;;;2.90;;
6356;SDS011;3211;53.452;-2.264;2023-08-12T07:09:16;8.30;;;2.87;;
6356;SDS011;3211;53.452;-2.264;2023-08-12T07:11:58;9.90;;;2.87;;
6356;SDS011;3211;53.452;-2.264;2023-08-12T07:14:41;10.60;;;3.10;;
6356;SDS011;3211;53.452;-2.264;2023-08-12T07:17:23;10.37;;;3.50;;
6356;SDS011;3211;53.452;-2.264;2023-08-12T07:20:06;10.30;;;3.20;;
6356;SDS011;3211;53.452;-2.264;2023-08-12T07:22:50;12.17;;;3.20;;
6356;SDS011;3211;53.452;-2.264;2023-08-12T07:25:32;8.90;;;2.60;;
6356;SDS011;3211;53.452;-2.264;2023-08-12T07:28:14;8.27;;;2.53;;
6356;SDS011;3211;53.452;-2.264;2023-08-12T07:30:56;9.40;;;3.37;;
6356;SDS011;3211;53.452;-2.264;2023-08-12T07:33:38;7.93;;;2.70;;
6356;SDS011;3211;53.452;-2.264;2023-08-12T07:36:20;10.23;;;3.30;;
6356;SDS011;3211;53.452;-2.264;2023-08-12T07:39:04;9.37;;;3.33;;
6356;SDS011;3211;53.452;-2.264;2023-08-12T07:41:46;6.47;;;2.50;;
6356;SDS011;3211;53.452;-2.264;2023-08-12T07:44:28;9.37;;;3.50;;
6356;SDS011;3211;53.452;-2.264;2023-08-12T07:47:10;10.27;;;3.33;;
6356;SDS011;3211;53.452;-2.264;2023-08-12T07:49:52;6.80;;;2.80;;
6356;SDS011;3211;53.452;-2.264;2023-08-12T07:52:34;5.03;;;2.60;;
6356;SDS011;3211;53.452;-2.264;2023-08-12T07:55:17;9.00;;;2.83;;
6356;SDS011;3211;53.452;-2.264;2023-08-12T07:57:59;10.23;;;3.53;;
6356;SDS011;3211;53.452;-2.264;2023-08-12T08:00:41;10.10;;;3.00;;
6356;SDS011;3211;53.452;-2.264;2023-08-12T08:03:24;8.10;;;2.40;;
6356;SDS011;3211;53.452;-2.264;2023-08-12T08:06:06;13.50;;;3.60;;
6356;SDS011;3211;53.452;-2.264;2023-08-12T08:08:48;8.00;;;3.40;;
6356;SDS011;3211;53.452;-2.264;2023-08-12T08:11:32;8.77;;;3.30;;
6356;SDS011;3211;53.452;-2.264;2023-08-12T08:14:14;7.60;;;2.70;;
6356;SDS011;3211;53.452;-2.264;2023-08-12T08:16:56;9.67;;;2.70;;
6356;SDS011;3211;53.452;-2.264;2023-08-12T08:19:38;12.83;;;3.00;;
6356;SDS011;3211;53.452;-2.264;2023-08-12T08:22:20;10.27;;;2.93;;
6356;SDS011;3211;53.452;-2.264;2023-08-12T08:25:02;10.90;;;3.17;;
6356;SDS011;3211;53.452;-2.264;2023-08-12T08:27:45;8.60;;;2.90;;
6356;SDS011;3211;53.452;-2.264;2023-08-12T08:30:28;9.50;;;3.10;;
6356;SDS011;3211;53.452;-2.264;2023-08-12T08:33:10;11.47;;;2.40;;
6356;SDS011;3211;53.452;-2.264;2023-08-12T08:35:53;6.90;;;2.80;;
6356;SDS011;3211;53.452;-2.264;2023-08-12T08:38:35;8.63;;;2.70;;
6356;SDS011;3211;53.452;-2.264;2023-08-12T08:41:17;7.50;;;2.63;;
6356;SDS011;3211;53.452;-2.264;2023-08-12T08:44:02;10.70;;;3.07;;
6356;SDS011;3211;53.452;-2.264;2023-08-12T08:46:46;8.80;;;2.90;;
6356;SDS011;3211;53.452;-2.264;2023-08-12T08:49:28;11.77;;;3.67;;
6356;SDS011;3211;53.452;-2.264;2023-08-12T08:52:11;9.40;;;3.00;;
6356;SDS011;3211;53.452;-2.264;2023-08-12T08:54:53;11.63;;;2.87;;
6356;SDS011;3211;53.452;-2.264;2023-08-12T08:57:36;16.23;;;3.80;;
6356;SDS011;3211;53.452;-2.264;2023-08-12T09:00:20;9.20;;;2.47;;
6356;SDS011;3211;53.452;-2.264;2023-08-12T09:03:02;8.10;;;2.73;;
6356;SDS011;3211;53.452;-2.264;2023-08-12T09:05:48;12.67;;;3.30;;
6356;SDS011;3211;53.452;-2.264;2023-08-12T09:08:31;8.47;;;3.10;;
6356;SDS011;3211;53.452;-2.264;2023-08-12T09:11:14;10.10;;;2.83;;
6356;SDS011;3211;53.452;-2.264;2023-08-12T09:13:58;15.20;;;3.37;;
6356;SDS011;3211;53.452;-2.264;2023-08-12T09:16:42;9.20;;;2.90;;
6356;SDS011;3211;53.452;-2.264;2023-08-12T09:19:24;9.73;;;3.27;;
6356;SDS011;3211;53.452;-2.264;2023-08-12T09:22:07;10.20;;;3.37;;
6356;SDS011;3211;53.452;-2.264;2023-08-12T09:24:49;12.47;;;3.20;;
6356;SDS011;3211;53.452;-2.264;2023-08-12T09:27:32;13.90;;;2.90;;
6356;SDS011;3211;53.452;-2.264;2023-08-12T09:30:17;11.37;;;3.60;;
6356;SDS011;3211;53.452;-2.264;2023-08-12T09:33:04;11.17;;;2.90;;
6356;SDS011;3211;53.452;-2.264;2023-08-12T09:35:47;8.60;;;2.87;;
6356;SDS011;3211;53.452;-2.264;2023-08-12T09:38:31;9.90;;;2.70;;
6356;SDS011;3211;53.452;-2.264;2023-08-12T09:41:13;10.83;;;2.73;;
6356;SDS011;3211;53.452;-2.264;2023-08-12T09:43:56;13.33;;;2.73;;
6356;SDS011;3211;53.452;-2.264;2023-08-12T09:46:38;9.30;;;3.27;;
6356;SDS011;3211;53.452;-2.264;2023-08-12T09:49:21;8.13;;;2.37;;
6356;SDS011;3211;53.452;-2.264;2023-08-12T09:52:04;9.00;;;3.10;;
6356;SDS011;3211;53.452;-2.264;2023-08-12T09:54:47;11.73;;;3.23;;
6356;SDS011;3211;53.452;-2.264;2023-08-12T09:57:30;12.33;;;2.93;;
6356;SDS011;3211;53.452;-2.264;2023-08-12T10:00:15;10.63;;;2.90;;
6356;SDS011;3211;53.452;-2.264;2023-08-12T10:02:58;8.40;;;2.80;;
6356;SDS011;3211;53.452;-2.264;2023-08-12T10:05:43;10.03;;;4.30;;
6356;SDS011;3211;53.452;-2.264;2023-08-12T10:08:25;8.93;;;2.63;;
6356;SDS011;3211;53.452;-2.264;2023-08-12T10:11:08;7.43;;;2.60;;
6356;SDS011;3211;53.452;-2.264;2023-08-12T10:13:52;11.20;;;2.60;;
6356;SDS011;3211;53.452;-2.264;2023-08-12T10:16:34;8.47;;;2.90;;
6356;SDS011;3211;53.452;-2.264;2023-08-12T10:19:17;7.73;;;2.70;;
6356;SDS011;3211;53.452;-2.264;2023-08-12T10:22:03;4.80;;;2.63;;
6356;SDS011;3211;53.452;-2.264;2023-08-12T10:24:46;7.67;;;2.50;;
6356;SDS011;3211;53.452;-2.264;2023-08-12T10:27:29;9.20;;;2.30;;
6356;SDS011;3211;53.452;-2.264;2023-08-12T10:30:12;8.27;;;2.50;;
6356;SDS011;3211;53.452;-2.264;2023-08-12T10:32:55;6.27;;;2.27;;
6356;SDS011;3211;53.452;-2.264;2023-08-12T10:35:40;2.87;;;1.57;;
6356;SDS011;3211;53.452;-2.264;2023-08-12T10:38:24;9.33;;;2.40;;
6356;SDS011;3211;53.452;-2.264;2023-08-12T10:41:14;8.97;;;2.10;;
6356;SDS011;3211;53.452;-2.264;2023-08-12T10:43:58;3.40;;;1.70;;
6356;SDS011;3211;53.452;-2.264;2023-08-12T10:46:41;1.43;;;1.27;;
6356;SDS011;3211;53.452;-2.264;2023-08-12T10:49:37;2.17;;;1.10;;
6356;SDS011;3211;53.452;-2.264;2023-08-12T10:52:26;2.47;;;1.30;;
6356;SDS011;3211;53.452;-2.264;2023-08-12T10:55:17;4.93;;;1.60;;
6356;SDS011;3211;53.452;-2.264;2023-08-12T10:58:01;3.00;;;1.30;;
6356;SDS011;3211;53.452;-2.264;2023-08-12T11:00:51;2.90;;;1.20;;
6356;SDS011;3211;53.452;-2.264;2023-08-12T11:03:35;3.93;;;1.60;;
6356;SDS011;3211;53.452;-2.264;2023-08-12T11:06:16;1.90;;;1.20;;
6356;SDS011;3211;53.452;-2.264;2023-08-12T11:09:00;2.70;;;1.33;;
6356;SDS011;3211;53.452;-2.264;2023-08-12T11:11:49;3.20;;;1.40;;
6356;SDS011;3211;53.452;-2.264;2023-08-12T11:14:48;1.57;;;1.10;;
6356;SDS011;3211;53.452;-2.264;2023-08-12T11:17:36;2.13;;;1.23;;
6356;SDS011;3211;53.452;-2.264;2023-08-12T11:20:19;1.57;;;1.10;;
6356;SDS011;3211;53.452;-2.264;2023-08-12T11:23:02;2.27;;;1.20;;
6356;SDS011;3211;53.452;-2.264;2023-08-12T11:25:45;3.00;;;1.10;;
6356;SDS011;3211;53.452;-2.264;2023-08-12T11:28:31;2.20;;;1.30;;
6356;SDS011;3211;53.452;-2.264;2023-08-12T11:31:14;2.67;;;1.30;;
6356;SDS011;3211;53.452;-2.264;2023-08-12T11:33:56;1.80;;;1.23;;
6356;SDS011;3211;53.452;-2.264;2023-08-12T11:36:38;2.00;;;1.40;;
6356;SDS011;3211;53.452;-2.264;2023-08-12T11:39:21;6.30;;;1.30;;
6356;SDS011;3211;53.452;-2.264;2023-08-12T11:42:03;4.80;;;1.37;;
6356;SDS011;3211;53.452;-2.264;2023-08-12T11:44:47;1.93;;;1.10;;
6356;SDS011;3211;53.452;-2.264;2023-08-12T11:47:29;1.90;;;1.20;;
6356;SDS011;3211;53.452;-2.264;2023-08-12T11:50:11;3.30;;;1.30;;
6356;SDS011;3211;53.452;-2.264;2023-08-12T11:52:55;2.73;;;1.30;;
6356;SDS011;3211;53.452;-2.264;2023-08-12T11:55:37;1.87;;;1.10;;
6356;SDS011;3211;53.452;-2.264;2023-08-12T11:58:20;10.43;;;2.80;;
6356;SDS011;3211;53.452;-2.264;2023-08-12T12:01:04;1.97;;;1.40;;
6356;SDS011;3211;53.452;-2.264;2023-08-12T12:03:49;3.13;;;1.20;;
6356;SDS011;3211;53.452;-2.264;2023-08-12T12:06:32;2.23;;;1.30;;
6356;SDS011;3211;53.452;-2.264;2023-08-12T12:09:17;2.67;;;1.40;;
6356;SDS011;3211;53.452;-2.264;2023-08-12T12:12:00;2.50;;;1.30;;
6356;SDS011;3211;53.452;-2.264;2023-08-12T12:14:42;3.17;;;1.80;;
6356;SDS011;3211;53.452;-2.264;2023-08-12T12:17:25;1.70;;;1.40;;
6356;SDS011;3211;53.452;-2.264;2023-08-12T12:20:07;1.33;;;1.10;;
6356;SDS011;3211;53.452;-2.264;2023-08-12T12:22:51;3.00;;;1.47;;
6356;SDS011;3211;53.452;-2.264;2023-08-12T12:25:35;1.40;;;1.07;;
6356;SDS011;3211;53.452;-2.264;2023-08-12T12:28:17;3.47;;;1.30;;
6356;SDS011;3211;53.452;-2.264;2023-08-12T12:30:59;3.70;;;1.50;;
6356;SDS011;3211;53.452;-2.264;2023-08-12T12:33:42;2.80;;;1.03;;
6356;SDS011;3211;53.452;-2.264;2023-08-12T12:36:24;1.30;;;1.10;;
6356;SDS011;3211;53.452;-2.264;2023-08-12T12:39:06;4.80;;;1.77;;
6356;SDS011;3211;53.452;-2.264;2023-08-12T12:41:48;1.77;;;1.10;;
6356;SDS011;3211;53.452;-2.264;2023-08-12T12:44:30;1.67;;;1.30;;
6356;SDS011;3211;53.452;-2.264;2023-08-12T12:47:12;2.40;;;1.10;;
6356;SDS011;3211;53.452;-2.264;2023-08-12T12:49:56;2.80;;;1.30;;
6356;SDS011;3211;53.452;-2.264;2023-08-12T12:52:37;1.30;;;1.10;;
6356;SDS011;3211;53.452;-2.264;2023-08-12T12:55:19;1.80;;;1.20;;
6356;SDS011;3211;53.452;-2.264;2023-08-12T12:58:01;1.40;;;1.27;;
6356;SDS011;3211;53.452;-2.264;2023-08-12T13:00:46;1.90;;;1.10;;
6356;SDS011;3211;53.452;-2.264;2023-08-12T13:03:29;4.50;;;1.30;;
6356;SDS011;3211;53.452;-2.264;2023-08-12T13:06:13;2.80;;;1.40;;
6356;SDS011;3211;53.452;-2.264;2023-08-12T13:08:55;4.97;;;1.47;;
6356;SDS011;3211;53.452;-2.264;2023-08-12T13:11:36;2.27;;;1.20;;
6356;SDS011;3211;53.452;-2.264;2023-08-12T13:14:19;2.17;;;1.40;;
6356;SDS011;3211;53.452;-2.264;2023-08-12T13:17:01;3.30;;;1.27;;
6356;SDS011;3211;53.452;-2.264;2023-08-12T13:19:43;1.50;;;1.27;;
6356;SDS011;3211;53.452;-2.264;2023-08-12T13:22:26;2.93;;;1.63;;
6356;SDS011;3211;53.452;-2.264;2023-08-12T13:25:08;3.10;;;1.60;;
6356;SDS011;3211;53.452;-2.264;2023-08-12T13:27:50;4.93;;;1.80;;
6356;SDS011;3211;53.452;-2.264;2023-08-12T13:30:32;3.33;;;1.43;;
6356;SDS011;3211;53.452;-2.264;2023-08-12T13:33:14;2.57;;;1.40;;
6356;SDS011;3211;53.452;-2.264;2023-08-12T13:35:56;1.60;;;1.40;;
6356;SDS011;3211;53.452;-2.264;2023-08-12T13:38:40;4.80;;;1.60;;
6356;SDS011;3211;53.452;-2.264;2023-08-12T13:41:21;5.17;;;1.63;;
6356;SDS011;3211;53.452;-2.264;2023-08-12T13:44:03;5.13;;;1.40;;
6356;SDS011;3211;53.452;-2.264;2023-08-12T13:46:46;3.57;;;1.47;;
6356;SDS011;3211;53.452;-2.264;2023-08-12T13:49:28;2.07;;;1.47;;
6356;SDS011;3211;53.452;-2.264;2023-08-12T13:52:10;2.60;;;1.20;;
6356;SDS011;3211;53.452;-2.264;2023-08-12T13:54:53;2.70;;;1.23;;
6356;SDS011;3211;53.452;-2.264;2023-08-12T13:57:35;1.73;;;1.20;;
6356;SDS011;3211;53.452;-2.264;2023-08-12T14:00:17;1.70;;;1.20;;
6356;SDS011;3211;53.452;-2.264;2023-08-12T14:02:59;2.00;;;1.20;;
6356;SDS011;3211;53.452;-2.264;2023-08-12T14:05:41;1.93;;;1.00;;
6356;SDS011;3211;53.452;-2.264;2023-08-12T14:08:23;1.07;;;0.97;;
6356;SDS011;3211;53.452;-2.264;2023-08-12T14:11:07;2.73;;;1.37;;
6356;SDS011;3211;53.452;-2.264;2023-08-12T14:13:49;2.23;;;1.20;;
6356;SDS011;3211;53.452;-2.264;2023-08-12T14:16:31;3.53;;;1.10;;
6356;SDS011;3211;53.452;-2.264;2023-08-12T14:19:13;1.80;;;1.40;;
6356;SDS011;3211;53.452;-2.264;2023-08-12T14:21:56;4.03;;;1.20;;
6356;SDS011;3211;53.452;-2.264;2023-08-12T14:24:38;1.40;;;1.10;;
6356;SDS011;3211;53.452;-2.264;2023-08-12T14:27:22;1.90;;;1.30;;
6356;SDS011;3211;53.452;-2.264;2023-08-12T14:30:04;3.33;;;1.10;;
6356;SDS011;3211;53.452;-2.264;2023-08-12T14:32:47;1.47;;;1.10;;
6356;SDS011;3211;53.452;-2.264;2023-08-12T14:35:29;2.80;;;1.00;;
6356;SDS011;3211;53.452;-2.264;2023-08-12T14:38:11;1.23;;;1.00;;
6356;SDS011;3211;53.452;-2.264;2023-08-12T14:40:54;2.77;;;1.20;;
6356;SDS011;3211;53.452;-2.264;2023-08-12T14:43:37;3.63;;;1.30;;
6356;SDS011;3211;53.452;-2.264;2023-08-12T14:46:19;2.20;;;1.30;;
6356;SDS011;3211;53.452;-2.264;2023-08-12T14:49:01;2.13;;;1.00;;
6356;SDS011;3211;53.452;-2.264;2023-08-12T14:51:44;1.87;;;1.10;;
6356;SDS011;3211;53.452;-2.264;2023-08-12T14:54:26;2.20;;;1.33;;
6356;SDS011;3211;53.452;-2.264;2023-08-12T14:57:08;1.60;;;1.10;;
6356;SDS011;3211;53.452;-2.264;2023-08-12T14:59:51;2.30;;;1.13;;
6356;SDS011;3211;53.452;-2.264;2023-08-12T15:02:33;1.87;;;1.30;;
6356;SDS011;3211;53.452;-2.264;2023-08-12T15:05:15;2.43;;;1.20;;
6356;SDS011;3211;53.452;-2.264;2023-08-12T15:07:58;1.37;;;1.23;;
6356;SDS011;3211;53.452;-2.264;2023-08-12T15:10:40;1.63;;;1.13;;
6356;SDS011;3211;53.452;-2.264;2023-08-12T15:13:22;1.10;;;1.00;;
6356;SDS011;3211;53.452;-2.264;2023-08-12T15:16:05;2.43;;;1.10;;
6356;SDS011;3211;53.452;-2.264;2023-08-12T15:18:47;2.40;;;1.33;;
6356;SDS011;3211;53.452;-2.264;2023-08-12T15:21:29;2.00;;;1.10;;
6356;SDS011;3211;53.452;-2.264;2023-08-12T15:24:11;1.57;;;1.10;;
6356;SDS011;3211;53.452;-2.264;2023-08-12T15:26:53;2.40;;;1.10;;
6356;SDS011;3211;53.452;-2.264;2023-08-12T15:29:36;2.60;;;1.07;;
6356;SDS011;3211;53.452;-2.264;2023-08-12T15:32:19;3.90;;;1.43;;
6356;SDS011;3211;53.452;-2.264;2023-08-12T15:35:01;6.30;;;1.93;;
6356;SDS011;3211;53.452;-2.264;2023-08-12T15:37:43;3.00;;;1.77;;
6356;SDS011;3211;53.452;-2.264;2023-08-12T15:40:25;4.13;;;1.80;;
6356;SDS011;3211;53.452;-2.264;2023-08-12T15:43:07;2.67;;;1.70;;
6356;SDS011;3211;53.452;-2.264;2023-08-12T15:45:49;3.83;;;1.27;;
6356;SDS011;3211;53.452;-2.264;2023-08-12T15:48:32;3.20;;;1.63;;
6356;SDS011;3211;53.452;-2.264;2023-08-12T15:51:14;8.93;;;1.87;;
6356;SDS011;3211;53.452;-2.264;2023-08-12T15:53:56;2.67;;;1.80;;
6356;SDS011;3211;53.452;-2.264;2023-08-12T15:56:38;4.40;;;1.73;;
6356;SDS011;3211;53.452;-2.264;2023-08-12T15:59:20;2.60;;;1.40;;
6356;SDS011;3211;53.452;-2.264;2023-08-12T16:02:02;3.07;;;1.73;;
6356;SDS011;3211;53.452;-2.264;2023-08-12T16:04:45;4.40;;;1.40;;
6356;SDS011;3211;53.452;-2.264;2023-08-12T16:07:27;5.47;;;2.20;;
6356;SDS011;3211;53.452;-2.264;2023-08-12T16:10:09;5.23;;;1.53;;
6356;SDS011;3211;53.452;-2.264;2023-08-12T16:12:51;8.10;;;1.77;;
6356;SDS011;3211;53.452;-2.264;2023-08-12T16:15:33;3.87;;;1.70;;
6356;SDS011;3211;53.452;-2.264;2023-08-12T16:18:15;3.70;;;1.90;;
6356;SDS011;3211;53.452;-2.264;2023-08-12T16:20:58;3.60;;;2.03;;
6356;SDS011;3211;53.452;-2.264;2023-08-12T16:23:41;5.97;;;2.00;;
6356;SDS011;3211;53.452;-2.264;2023-08-12T16:26:23;3.10;;;1.40;;
6356;SDS011;3211;53.452;-2.264;2023-08-12T16:29:05;5.43;;;1.53;;